sensor_id;sensor_type;location;lat;lon;timestamp;P1;durP1;ratioP1;P2;durP2;ratioP2
37303;SDS011;23188;51.188;16.374;2023-04-12T00:01:21;6.10;;;3.20;;
37303;SDS011;23188;51.188;16.374;2023-04-12T00:05:25;5.50;;;3.90;;
37303;SDS011;23188;51.188;16.374;2023-04-12T00:09:30;6.30;;;3.20;;
37303;SDS011;23188;51.188;16.374;2023-04-12T00:13:34;11.50;;;4.00;;
37303;SDS011;23188;51.188;16.374;2023-04-12T00:17:38;4.00;;;3.10;;
37303;SDS011;23188;51.188;16.374;2023-04-12T00:21:44;8.90;;;3.40;;
37303;SDS011;23188;51.188;16.374;2023-04-12T00:25:47;6.20;;;3.60;;
37303;SDS011;23188;51.188;16.374;2023-04-12T00:29:50;8.20;;;4.10;;
37303;SDS011;23188;51.188;16.374;2023-04-12T00:33:54;5.90;;;3.20;;
37303;SDS011;23188;51.188;16.374;2023-04-12T00:37:58;6.80;;;3.40;;
37303;SDS011;23188;51.188;16.374;2023-04-12T00:42:02;8.60;;;3.80;;
37303;SDS011;23188;51.188;16.374;2023-04-12T00:46:06;5.50;;;4.10;;
37303;SDS011;23188;51.188;16.374;2023-04-12T00:54:16;5.30;;;3.60;;
37303;SDS011;23188;51.188;16.374;2023-04-12T00:58:22;6.40;;;3.20;;
37303;SDS011;23188;51.188;16.374;2023-04-12T01:02:26;7.80;;;3.10;;
37303;SDS011;23188;51.188;16.374;2023-04-12T01:10:55;6.90;;;3.50;;
37303;SDS011;23188;51.188;16.374;2023-04-12T01:15:13;3.60;;;2.90;;
37303;SDS011;23188;51.188;16.374;2023-04-12T01:19:23;5.50;;;2.90;;
37303;SDS011;23188;51.188;16.374;2023-04-12T01:28:22;5.70;;;3.00;;
37303;SDS011;23188;51.188;16.374;2023-04-12T01:32:30;6.30;;;3.60;;
37303;SDS011;23188;51.188;16.374;2023-04-12T01:36:35;5.60;;;2.60;;
37303;SDS011;23188;51.188;16.374;2023-04-12T01:40:41;3.30;;;2.20;;
37303;SDS011;23188;51.188;16.374;2023-04-12T01:44:45;5.90;;;2.80;;
37303;SDS011;23188;51.188;16.374;2023-04-12T01:48:49;5.80;;;3.00;;
37303;SDS011;23188;51.188;16.374;2023-04-12T01:53:00;5.40;;;3.30;;
37303;SDS011;23188;51.188;16.374;2023-04-12T01:57:12;7.50;;;4.30;;
37303;SDS011;23188;51.188;16.374;2023-04-12T02:01:17;6.20;;;4.50;;
37303;SDS011;23188;51.188;16.374;2023-04-12T02:05:23;9.50;;;6.40;;
37303;SDS011;23188;51.188;16.374;2023-04-12T02:09:27;7.30;;;3.70;;
37303;SDS011;23188;51.188;16.374;2023-04-12T02:13:30;5.90;;;3.30;;
37303;SDS011;23188;51.188;16.374;2023-04-12T02:17:34;3.20;;;2.80;;
37303;SDS011;23188;51.188;16.374;2023-04-12T02:21:41;6.10;;;4.30;;
37303;SDS011;23188;51.188;16.374;2023-04-12T02:25:45;5.00;;;3.10;;
37303;SDS011;23188;51.188;16.374;2023-04-12T02:29:49;4.20;;;3.00;;
37303;SDS011;23188;51.188;16.374;2023-04-12T02:33:52;5.00;;;3.60;;
37303;SDS011;23188;51.188;16.374;2023-04-12T02:37:57;5.00;;;3.10;;
37303;SDS011;23188;51.188;16.374;2023-04-12T02:42:02;6.20;;;3.90;;
37303;SDS011;23188;51.188;16.374;2023-04-12T02:46:05;6.60;;;3.50;;
37303;SDS011;23188;51.188;16.374;2023-04-12T02:50:09;4.40;;;2.90;;
37303;SDS011;23188;51.188;16.374;2023-04-12T02:54:12;6.00;;;2.80;;
37303;SDS011;23188;51.188;16.374;2023-04-12T02:58:15;3.10;;;2.90;;
37303;SDS011;23188;51.188;16.374;2023-04-12T03:02:20;4.70;;;3.00;;
37303;SDS011;23188;51.188;16.374;2023-04-12T03:06:25;6.90;;;3.60;;
37303;SDS011;23188;51.188;16.374;2023-04-12T03:10:31;4.10;;;3.50;;
37303;SDS011;23188;51.188;16.374;2023-04-12T03:14:34;4.70;;;2.80;;
37303;SDS011;23188;51.188;16.374;2023-04-12T03:18:38;6.50;;;3.00;;
37303;SDS011;23188;51.188;16.374;2023-04-12T03:23:03;6.30;;;4.70;;
37303;SDS011;23188;51.188;16.374;2023-04-12T03:27:07;3.30;;;2.50;;
37303;SDS011;23188;51.188;16.374;2023-04-12T03:31:10;5.30;;;3.80;;
37303;SDS011;23188;51.188;16.374;2023-04-12T03:35:17;5.50;;;4.10;;
37303;SDS011;23188;51.188;16.374;2023-04-12T03:39:20;7.20;;;3.40;;
37303;SDS011;23188;51.188;16.374;2023-04-12T03:43:44;3.80;;;3.20;;
37303;SDS011;23188;51.188;16.374;2023-04-12T03:47:50;3.80;;;3.40;;
37303;SDS011;23188;51.188;16.374;2023-04-12T03:52:12;6.60;;;4.10;;
37303;SDS011;23188;51.188;16.374;2023-04-12T03:56:16;7.60;;;3.10;;
37303;SDS011;23188;51.188;16.374;2023-04-12T04:00:38;4.20;;;3.50;;
37303;SDS011;23188;51.188;16.374;2023-04-12T04:04:42;7.00;;;3.40;;
37303;SDS011;23188;51.188;16.374;2023-04-12T04:08:45;7.90;;;3.80;;
37303;SDS011;23188;51.188;16.374;2023-04-12T04:12:48;12.10;;;3.50;;
37303;SDS011;23188;51.188;16.374;2023-04-12T04:16:52;6.80;;;3.40;;
37303;SDS011;23188;51.188;16.374;2023-04-12T04:20:57;4.70;;;3.70;;
37303;SDS011;23188;51.188;16.374;2023-04-12T04:25:01;9.30;;;3.60;;
37303;SDS011;23188;51.188;16.374;2023-04-12T04:29:06;7.10;;;4.80;;
37303;SDS011;23188;51.188;16.374;2023-04-12T04:33:10;4.60;;;3.60;;
37303;SDS011;23188;51.188;16.374;2023-04-12T04:37:14;5.90;;;3.90;;
37303;SDS011;23188;51.188;16.374;2023-04-12T04:41:18;7.30;;;4.40;;
37303;SDS011;23188;51.188;16.374;2023-04-12T04:45:24;4.80;;;3.10;;
37303;SDS011;23188;51.188;16.374;2023-04-12T04:49:28;6.10;;;3.80;;
37303;SDS011;23188;51.188;16.374;2023-04-12T04:53:32;12.60;;;9.50;;
37303;SDS011;23188;51.188;16.374;2023-04-12T04:57:35;14.50;;;12.50;;
37303;SDS011;23188;51.188;16.374;2023-04-12T05:01:38;7.90;;;5.90;;
37303;SDS011;23188;51.188;16.374;2023-04-12T05:05:43;7.90;;;5.40;;
37303;SDS011;23188;51.188;16.374;2023-04-12T05:09:46;7.20;;;4.20;;
37303;SDS011;23188;51.188;16.374;2023-04-12T05:13:49;7.60;;;4.80;;
37303;SDS011;23188;51.188;16.374;2023-04-12T05:17:52;5.10;;;3.90;;
37303;SDS011;23188;51.188;16.374;2023-04-12T05:21:56;5.60;;;3.60;;
37303;SDS011;23188;51.188;16.374;2023-04-12T05:25:59;3.70;;;2.90;;
37303;SDS011;23188;51.188;16.374;2023-04-12T05:30:03;5.60;;;3.70;;
37303;SDS011;23188;51.188;16.374;2023-04-12T05:34:06;6.10;;;2.50;;
37303;SDS011;23188;51.188;16.374;2023-04-12T05:38:09;4.50;;;2.20;;
37303;SDS011;23188;51.188;16.374;2023-04-12T05:42:12;3.60;;;2.50;;
37303;SDS011;23188;51.188;16.374;2023-04-12T05:46:15;8.40;;;5.80;;
37303;SDS011;23188;51.188;16.374;2023-04-12T05:50:19;9.00;;;3.60;;
37303;SDS011;23188;51.188;16.374;2023-04-12T05:54:22;4.90;;;3.20;;
37303;SDS011;23188;51.188;16.374;2023-04-12T05:58:26;5.20;;;3.60;;
37303;SDS011;23188;51.188;16.374;2023-04-12T06:02:30;6.00;;;4.60;;
37303;SDS011;23188;51.188;16.374;2023-04-12T06:06:34;5.80;;;3.70;;
37303;SDS011;23188;51.188;16.374;2023-04-12T06:10:37;4.00;;;3.60;;
37303;SDS011;23188;51.188;16.374;2023-04-12T06:14:40;7.60;;;4.30;;
37303;SDS011;23188;51.188;16.374;2023-04-12T06:18:44;6.80;;;4.90;;
37303;SDS011;23188;51.188;16.374;2023-04-12T06:22:47;5.40;;;4.70;;
37303;SDS011;23188;51.188;16.374;2023-04-12T06:26:50;13.90;;;5.80;;
37303;SDS011;23188;51.188;16.374;2023-04-12T06:30:53;7.40;;;4.60;;
37303;SDS011;23188;51.188;16.374;2023-04-12T06:34:56;8.20;;;4.10;;
37303;SDS011;23188;51.188;16.374;2023-04-12T06:38:59;5.30;;;3.80;;
37303;SDS011;23188;51.188;16.374;2023-04-12T06:43:03;6.60;;;3.50;;
37303;SDS011;23188;51.188;16.374;2023-04-12T06:47:06;6.00;;;4.30;;
37303;SDS011;23188;51.188;16.374;2023-04-12T06:51:09;6.30;;;3.40;;
37303;SDS011;23188;51.188;16.374;2023-04-12T06:55:15;6.30;;;4.50;;
37303;SDS011;23188;51.188;16.374;2023-04-12T06:59:19;6.70;;;3.90;;
37303;SDS011;23188;51.188;16.374;2023-04-12T07:03:22;6.00;;;3.50;;
37303;SDS011;23188;51.188;16.374;2023-04-12T07:07:26;7.50;;;3.80;;
37303;SDS011;23188;51.188;16.374;2023-04-12T07:11:29;4.10;;;3.30;;
37303;SDS011;23188;51.188;16.374;2023-04-12T07:15:33;5.70;;;4.10;;
37303;SDS011;23188;51.188;16.374;2023-04-12T07:19:38;5.30;;;3.70;;
37303;SDS011;23188;51.188;16.374;2023-04-12T07:23:43;9.20;;;4.00;;
37303;SDS011;23188;51.188;16.374;2023-04-12T07:27:48;5.60;;;3.50;;
37303;SDS011;23188;51.188;16.374;2023-04-12T07:31:53;5.60;;;3.30;;
37303;SDS011;23188;51.188;16.374;2023-04-12T07:35:56;6.40;;;3.60;;
37303;SDS011;23188;51.188;16.374;2023-04-12T07:39:59;8.50;;;3.90;;
37303;SDS011;23188;51.188;16.374;2023-04-12T07:44:03;3.90;;;2.40;;
37303;SDS011;23188;51.188;16.374;2023-04-12T07:48:07;13.10;;;5.80;;
37303;SDS011;23188;51.188;16.374;2023-04-12T07:52:10;111.60;;;71.80;;
37303;SDS011;23188;51.188;16.374;2023-04-12T07:56:13;10.00;;;5.90;;
37303;SDS011;23188;51.188;16.374;2023-04-12T08:00:17;21.60;;;10.60;;
37303;SDS011;23188;51.188;16.374;2023-04-12T08:04:20;6.90;;;3.90;;
37303;SDS011;23188;51.188;16.374;2023-04-12T08:08:23;3.80;;;2.10;;
37303;SDS011;23188;51.188;16.374;2023-04-12T08:12:27;6.10;;;4.30;;
37303;SDS011;23188;51.188;16.374;2023-04-12T08:16:30;9.20;;;3.50;;
37303;SDS011;23188;51.188;16.374;2023-04-12T08:20:34;4.00;;;2.80;;
37303;SDS011;23188;51.188;16.374;2023-04-12T08:24:42;6.40;;;2.80;;
37303;SDS011;23188;51.188;16.374;2023-04-12T08:28:49;4.10;;;2.30;;
37303;SDS011;23188;51.188;16.374;2023-04-12T08:32:52;4.30;;;3.30;;
37303;SDS011;23188;51.188;16.374;2023-04-12T08:36:56;9.60;;;5.20;;
37303;SDS011;23188;51.188;16.374;2023-04-12T08:41:05;4.70;;;3.10;;
37303;SDS011;23188;51.188;16.374;2023-04-12T08:45:09;6.70;;;2.90;;
37303;SDS011;23188;51.188;16.374;2023-04-12T08:49:14;4.90;;;2.00;;
37303;SDS011;23188;51.188;16.374;2023-04-12T08:53:18;4.40;;;2.10;;
37303;SDS011;23188;51.188;16.374;2023-04-12T08:57:22;4.00;;;2.80;;
37303;SDS011;23188;51.188;16.374;2023-04-12T09:01:26;5.20;;;3.10;;
37303;SDS011;23188;51.188;16.374;2023-04-12T09:05:30;3.80;;;3.10;;
37303;SDS011;23188;51.188;16.374;2023-04-12T09:09:43;2.90;;;2.30;;
37303;SDS011;23188;51.188;16.374;2023-04-12T09:13:47;6.90;;;2.70;;
37303;SDS011;23188;51.188;16.374;2023-04-12T09:18:01;3.40;;;2.10;;
37303;SDS011;23188;51.188;16.374;2023-04-12T09:22:05;5.90;;;2.40;;
37303;SDS011;23188;51.188;16.374;2023-04-12T09:26:08;5.50;;;3.30;;
37303;SDS011;23188;51.188;16.374;2023-04-12T09:30:28;2.30;;;2.10;;
37303;SDS011;23188;51.188;16.374;2023-04-12T09:34:32;3.00;;;2.50;;
37303;SDS011;23188;51.188;16.374;2023-04-12T09:38:37;6.60;;;4.00;;
37303;SDS011;23188;51.188;16.374;2023-04-12T09:42:50;17.60;;;10.80;;
37303;SDS011;23188;51.188;16.374;2023-04-12T09:46:55;52.80;;;23.50;;
37303;SDS011;23188;51.188;16.374;2023-04-12T09:50:58;19.20;;;9.00;;
37303;SDS011;23188;51.188;16.374;2023-04-12T09:55:07;10.10;;;5.50;;
37303;SDS011;23188;51.188;16.374;2023-04-12T09:59:12;5.10;;;3.30;;
37303;SDS011;23188;51.188;16.374;2023-04-12T10:03:18;3.90;;;2.30;;
37303;SDS011;23188;51.188;16.374;2023-04-12T10:07:22;3.60;;;2.90;;
37303;SDS011;23188;51.188;16.374;2023-04-12T10:11:25;12.10;;;7.40;;
37303;SDS011;23188;51.188;16.374;2023-04-12T10:15:29;12.90;;;9.50;;
37303;SDS011;23188;51.188;16.374;2023-04-12T10:19:34;13.70;;;8.10;;
37303;SDS011;23188;51.188;16.374;2023-04-12T10:23:44;12.50;;;9.90;;
37303;SDS011;23188;51.188;16.374;2023-04-12T10:27:48;6.00;;;4.30;;
37303;SDS011;23188;51.188;16.374;2023-04-12T10:31:54;5.60;;;4.00;;
37303;SDS011;23188;51.188;16.374;2023-04-12T10:36:20;11.90;;;8.80;;
37303;SDS011;23188;51.188;16.374;2023-04-12T10:41:05;14.50;;;5.70;;
37303;SDS011;23188;51.188;16.374;2023-04-12T10:49:25;8.10;;;4.20;;
37303;SDS011;23188;51.188;16.374;2023-04-12T10:53:28;4.30;;;3.30;;
37303;SDS011;23188;51.188;16.374;2023-04-12T10:57:42;9.80;;;5.90;;
37303;SDS011;23188;51.188;16.374;2023-04-12T11:06:09;7.90;;;5.60;;
37303;SDS011;23188;51.188;16.374;2023-04-12T11:10:28;23.90;;;5.40;;
37303;SDS011;23188;51.188;16.374;2023-04-12T11:14:36;5.00;;;4.20;;
37303;SDS011;23188;51.188;16.374;2023-04-12T11:18:46;4.80;;;4.20;;
37303;SDS011;23188;51.188;16.374;2023-04-12T11:22:50;12.70;;;5.50;;
37303;SDS011;23188;51.188;16.374;2023-04-12T11:26:55;7.40;;;5.00;;
37303;SDS011;23188;51.188;16.374;2023-04-12T11:30:59;7.40;;;4.30;;
37303;SDS011;23188;51.188;16.374;2023-04-12T11:35:02;7.80;;;4.40;;
37303;SDS011;23188;51.188;16.374;2023-04-12T11:39:06;10.60;;;5.70;;
37303;SDS011;23188;51.188;16.374;2023-04-12T11:43:10;6.90;;;3.90;;
37303;SDS011;23188;51.188;16.374;2023-04-12T11:47:17;6.80;;;4.70;;
37303;SDS011;23188;51.188;16.374;2023-04-12T11:51:22;5.20;;;4.00;;
37303;SDS011;23188;51.188;16.374;2023-04-12T11:55:34;7.60;;;5.30;;
37303;SDS011;23188;51.188;16.374;2023-04-12T11:59:41;8.90;;;5.90;;
37303;SDS011;23188;51.188;16.374;2023-04-12T12:07:50;3.80;;;3.40;;
37303;SDS011;23188;51.188;16.374;2023-04-12T12:11:54;7.80;;;4.80;;
37303;SDS011;23188;51.188;16.374;2023-04-12T12:15:58;10.00;;;5.00;;
37303;SDS011;23188;51.188;16.374;2023-04-12T12:20:01;4.10;;;3.20;;
37303;SDS011;23188;51.188;16.374;2023-04-12T12:24:06;4.10;;;2.60;;
37303;SDS011;23188;51.188;16.374;2023-04-12T12:28:13;3.90;;;2.60;;
37303;SDS011;23188;51.188;16.374;2023-04-12T12:32:17;6.10;;;3.40;;
37303;SDS011;23188;51.188;16.374;2023-04-12T12:36:28;6.90;;;3.20;;
37303;SDS011;23188;51.188;16.374;2023-04-12T12:40:35;6.30;;;3.40;;
37303;SDS011;23188;51.188;16.374;2023-04-12T12:48:45;7.40;;;3.80;;
37303;SDS011;23188;51.188;16.374;2023-04-12T12:52:49;6.60;;;2.80;;
37303;SDS011;23188;51.188;16.374;2023-04-12T12:56:53;2.70;;;2.00;;
37303;SDS011;23188;51.188;16.374;2023-04-12T13:00:56;11.40;;;4.00;;
37303;SDS011;23188;51.188;16.374;2023-04-12T13:04:59;7.20;;;3.60;;
37303;SDS011;23188;51.188;16.374;2023-04-12T13:09:05;8.20;;;5.80;;
37303;SDS011;23188;51.188;16.374;2023-04-12T13:13:08;7.70;;;4.50;;
37303;SDS011;23188;51.188;16.374;2023-04-12T13:17:11;4.30;;;3.10;;
37303;SDS011;23188;51.188;16.374;2023-04-12T13:21:14;6.70;;;3.80;;
37303;SDS011;23188;51.188;16.374;2023-04-12T13:25:18;6.10;;;4.80;;
37303;SDS011;23188;51.188;16.374;2023-04-12T13:29:22;4.60;;;3.10;;
37303;SDS011;23188;51.188;16.374;2023-04-12T13:33:25;5.20;;;2.90;;
37303;SDS011;23188;51.188;16.374;2023-04-12T13:37:28;4.90;;;2.70;;
37303;SDS011;23188;51.188;16.374;2023-04-12T13:41:32;4.40;;;2.50;;
37303;SDS011;23188;51.188;16.374;2023-04-12T13:45:36;6.80;;;2.70;;
37303;SDS011;23188;51.188;16.374;2023-04-12T13:49:42;4.10;;;2.20;;
37303;SDS011;23188;51.188;16.374;2023-04-12T13:53:51;5.50;;;2.60;;
37303;SDS011;23188;51.188;16.374;2023-04-12T13:57:58;3.20;;;2.10;;
37303;SDS011;23188;51.188;16.374;2023-04-12T14:02:05;6.70;;;3.00;;
37303;SDS011;23188;51.188;16.374;2023-04-12T14:06:15;3.00;;;1.90;;
37303;SDS011;23188;51.188;16.374;2023-04-12T14:10:18;2.70;;;1.80;;
37303;SDS011;23188;51.188;16.374;2023-04-12T14:14:22;5.90;;;3.20;;
37303;SDS011;23188;51.188;16.374;2023-04-12T14:18:32;5.00;;;2.40;;
37303;SDS011;23188;51.188;16.374;2023-04-12T14:22:37;4.80;;;2.10;;
37303;SDS011;23188;51.188;16.374;2023-04-12T14:26:40;1.50;;;1.30;;
37303;SDS011;23188;51.188;16.374;2023-04-12T14:30:44;3.70;;;1.90;;
37303;SDS011;23188;51.188;16.374;2023-04-12T14:34:47;1.80;;;1.70;;
37303;SDS011;23188;51.188;16.374;2023-04-12T14:38:50;4.00;;;2.50;;
37303;SDS011;23188;51.188;16.374;2023-04-12T14:42:53;4.20;;;2.60;;
37303;SDS011;23188;51.188;16.374;2023-04-12T14:46:57;9.90;;;4.20;;
37303;SDS011;23188;51.188;16.374;2023-04-12T14:51:00;3.60;;;2.20;;
37303;SDS011;23188;51.188;16.374;2023-04-12T14:55:04;5.20;;;2.80;;
37303;SDS011;23188;51.188;16.374;2023-04-12T14:59:07;10.50;;;5.20;;
37303;SDS011;23188;51.188;16.374;2023-04-12T15:03:11;3.80;;;1.80;;
37303;SDS011;23188;51.188;16.374;2023-04-12T15:07:14;2.70;;;2.20;;
37303;SDS011;23188;51.188;16.374;2023-04-12T15:11:17;4.70;;;2.70;;
37303;SDS011;23188;51.188;16.374;2023-04-12T15:15:20;20.80;;;12.00;;
37303;SDS011;23188;51.188;16.374;2023-04-12T15:19:24;20.10;;;13.00;;
37303;SDS011;23188;51.188;16.374;2023-04-12T15:23:46;8.50;;;4.70;;
37303;SDS011;23188;51.188;16.374;2023-04-12T15:28:16;6.30;;;3.90;;
37303;SDS011;23188;51.188;16.374;2023-04-12T15:32:29;2.20;;;2.00;;
37303;SDS011;23188;51.188;16.374;2023-04-12T15:36:44;7.40;;;3.90;;
37303;SDS011;23188;51.188;16.374;2023-04-12T15:41:00;6.40;;;4.30;;
37303;SDS011;23188;51.188;16.374;2023-04-12T15:45:05;6.10;;;4.00;;
37303;SDS011;23188;51.188;16.374;2023-04-12T15:49:13;8.10;;;4.10;;
37303;SDS011;23188;51.188;16.374;2023-04-12T15:53:24;6.60;;;5.70;;
37303;SDS011;23188;51.188;16.374;2023-04-12T15:57:58;7.80;;;3.00;;
37303;SDS011;23188;51.188;16.374;2023-04-12T16:02:51;7.00;;;3.90;;
37303;SDS011;23188;51.188;16.374;2023-04-12T16:07:42;7.50;;;5.40;;
37303;SDS011;23188;51.188;16.374;2023-04-12T16:12:48;8.10;;;6.10;;
37303;SDS011;23188;51.188;16.374;2023-04-12T16:17:22;5.30;;;3.70;;
37303;SDS011;23188;51.188;16.374;2023-04-12T16:22:19;6.60;;;4.40;;
37303;SDS011;23188;51.188;16.374;2023-04-12T16:27:07;5.70;;;4.50;;
37303;SDS011;23188;51.188;16.374;2023-04-12T16:32:08;15.40;;;9.60;;
37303;SDS011;23188;51.188;16.374;2023-04-12T16:36:15;29.40;;;19.90;;
37303;SDS011;23188;51.188;16.374;2023-04-12T16:40:18;25.60;;;17.60;;
37303;SDS011;23188;51.188;16.374;2023-04-12T16:44:22;19.40;;;12.20;;
37303;SDS011;23188;51.188;16.374;2023-04-12T16:48:25;16.60;;;11.00;;
37303;SDS011;23188;51.188;16.374;2023-04-12T16:52:30;17.80;;;11.60;;
37303;SDS011;23188;51.188;16.374;2023-04-12T16:56:33;23.90;;;14.50;;
37303;SDS011;23188;51.188;16.374;2023-04-12T17:00:37;21.30;;;11.60;;
37303;SDS011;23188;51.188;16.374;2023-04-12T17:04:40;26.60;;;16.00;;
37303;SDS011;23188;51.188;16.374;2023-04-12T17:08:44;195.90;;;108.30;;
37303;SDS011;23188;51.188;16.374;2023-04-12T17:12:49;321.40;;;183.90;;
37303;SDS011;23188;51.188;16.374;2023-04-12T17:16:54;208.00;;;125.20;;
37303;SDS011;23188;51.188;16.374;2023-04-12T17:20:58;144.20;;;81.40;;
37303;SDS011;23188;51.188;16.374;2023-04-12T17:25:04;44.90;;;29.10;;
37303;SDS011;23188;51.188;16.374;2023-04-12T17:29:08;60.30;;;42.70;;
37303;SDS011;23188;51.188;16.374;2023-04-12T17:33:12;24.90;;;17.50;;
37303;SDS011;23188;51.188;16.374;2023-04-12T17:37:16;13.60;;;9.80;;
37303;SDS011;23188;51.188;16.374;2023-04-12T17:41:21;17.70;;;9.80;;
37303;SDS011;23188;51.188;16.374;2023-04-12T17:45:25;23.60;;;14.60;;
37303;SDS011;23188;51.188;16.374;2023-04-12T17:49:28;18.60;;;12.50;;
37303;SDS011;23188;51.188;16.374;2023-04-12T17:53:33;23.30;;;14.10;;
37303;SDS011;23188;51.188;16.374;2023-04-12T18:02:03;18.30;;;11.60;;
37303;SDS011;23188;51.188;16.374;2023-04-12T18:06:07;30.60;;;16.00;;
37303;SDS011;23188;51.188;16.374;2023-04-12T18:10:11;42.80;;;22.00;;
37303;SDS011;23188;51.188;16.374;2023-04-12T18:14:17;31.70;;;18.10;;
37303;SDS011;23188;51.188;16.374;2023-04-12T18:18:24;21.20;;;13.00;;
37303;SDS011;23188;51.188;16.374;2023-04-12T18:22:36;8.60;;;6.10;;
37303;SDS011;23188;51.188;16.374;2023-04-12T18:26:41;11.70;;;8.70;;
37303;SDS011;23188;51.188;16.374;2023-04-12T18:30:46;12.40;;;7.70;;
37303;SDS011;23188;51.188;16.374;2023-04-12T18:35:23;7.30;;;6.50;;
37303;SDS011;23188;51.188;16.374;2023-04-12T18:40:09;10.20;;;7.40;;
37303;SDS011;23188;51.188;16.374;2023-04-12T18:45:11;18.40;;;12.10;;
37303;SDS011;23188;51.188;16.374;2023-04-12T18:50:40;35.80;;;21.70;;
37303;SDS011;23188;51.188;16.374;2023-04-12T18:55:30;35.90;;;21.80;;
37303;SDS011;23188;51.188;16.374;2023-04-12T18:59:59;17.50;;;12.60;;
37303;SDS011;23188;51.188;16.374;2023-04-12T19:04:56;10.50;;;8.30;;
37303;SDS011;23188;51.188;16.374;2023-04-12T19:09:33;13.10;;;9.20;;
37303;SDS011;23188;51.188;16.374;2023-04-12T19:13:39;11.20;;;9.40;;
37303;SDS011;23188;51.188;16.374;2023-04-12T19:17:42;14.30;;;11.00;;
37303;SDS011;23188;51.188;16.374;2023-04-12T19:21:46;12.70;;;8.10;;
37303;SDS011;23188;51.188;16.374;2023-04-12T19:25:49;10.40;;;8.30;;
37303;SDS011;23188;51.188;16.374;2023-04-12T19:29:54;13.60;;;9.90;;
37303;SDS011;23188;51.188;16.374;2023-04-12T19:33:58;13.90;;;9.10;;
37303;SDS011;23188;51.188;16.374;2023-04-12T19:38:02;11.90;;;8.90;;
37303;SDS011;23188;51.188;16.374;2023-04-12T19:42:05;13.20;;;10.80;;
37303;SDS011;23188;51.188;16.374;2023-04-12T19:46:09;10.10;;;9.00;;
37303;SDS011;23188;51.188;16.374;2023-04-12T19:50:13;18.40;;;11.20;;
37303;SDS011;23188;51.188;16.374;2023-04-12T19:54:17;12.70;;;9.40;;
37303;SDS011;23188;51.188;16.374;2023-04-12T19:58:25;12.70;;;10.00;;
37303;SDS011;23188;51.188;16.374;2023-04-12T20:02:31;18.50;;;11.40;;
37303;SDS011;23188;51.188;16.374;2023-04-12T20:11:33;22.20;;;14.00;;
37303;SDS011;23188;51.188;16.374;2023-04-12T20:15:56;28.50;;;15.50;;
37303;SDS011;23188;51.188;16.374;2023-04-12T20:20:02;24.30;;;14.10;;
37303;SDS011;23188;51.188;16.374;2023-04-12T20:24:17;20.50;;;13.10;;
37303;SDS011;23188;51.188;16.374;2023-04-12T20:28:43;16.60;;;12.40;;
37303;SDS011;23188;51.188;16.374;2023-04-12T20:33:08;15.00;;;10.70;;
37303;SDS011;23188;51.188;16.374;2023-04-12T20:42:10;18.10;;;13.30;;
37303;SDS011;23188;51.188;16.374;2023-04-12T20:46:34;14.60;;;10.10;;
37303;SDS011;23188;51.188;16.374;2023-04-12T20:51:18;21.10;;;11.30;;
37303;SDS011;23188;51.188;16.374;2023-04-12T20:55:41;13.10;;;10.60;;
37303;SDS011;23188;51.188;16.374;2023-04-12T21:00:00;14.80;;;12.60;;
37303;SDS011;23188;51.188;16.374;2023-04-12T21:04:21;15.60;;;13.20;;
37303;SDS011;23188;51.188;16.374;2023-04-12T21:09:04;19.10;;;12.20;;
37303;SDS011;23188;51.188;16.374;2023-04-12T21:18:10;13.40;;;11.10;;
37303;SDS011;23188;51.188;16.374;2023-04-12T21:22:22;16.70;;;11.40;;
37303;SDS011;23188;51.188;16.374;2023-04-12T21:26:30;12.20;;;10.00;;
37303;SDS011;23188;51.188;16.374;2023-04-12T21:30:43;25.40;;;12.50;;
37303;SDS011;23188;51.188;16.374;2023-04-12T21:34:53;19.60;;;13.40;;
37303;SDS011;23188;51.188;16.374;2023-04-12T21:39:36;13.60;;;11.20;;
37303;SDS011;23188;51.188;16.374;2023-04-12T22:08:42;19.20;;;12.40;;
37303;SDS011;23188;51.188;16.374;2023-04-12T22:12:45;15.80;;;11.40;;
37303;SDS011;23188;51.188;16.374;2023-04-12T22:16:55;17.50;;;10.00;;
37303;SDS011;23188;51.188;16.374;2023-04-12T22:20:59;13.60;;;9.50;;
37303;SDS011;23188;51.188;16.374;2023-04-12T22:29:09;9.20;;;7.00;;
37303;SDS011;23188;51.188;16.374;2023-04-12T22:33:12;8.80;;;7.10;;
37303;SDS011;23188;51.188;16.374;2023-04-12T22:37:17;11.80;;;7.40;;
37303;SDS011;23188;51.188;16.374;2023-04-12T22:41:20;10.00;;;6.90;;
37303;SDS011;23188;51.188;16.374;2023-04-12T22:45:24;9.40;;;6.30;;
37303;SDS011;23188;51.188;16.374;2023-04-12T22:49:27;11.10;;;7.20;;
37303;SDS011;23188;51.188;16.374;2023-04-12T22:53:30;18.20;;;9.10;;
37303;SDS011;23188;51.188;16.374;2023-04-12T22:57:34;10.80;;;7.80;;
37303;SDS011;23188;51.188;16.374;2023-04-12T23:01:37;11.20;;;6.70;;
37303;SDS011;23188;51.188;16.374;2023-04-12T23:05:41;9.70;;;7.40;;
37303;SDS011;23188;51.188;16.374;2023-04-12T23:09:46;10.20;;;7.30;;
37303;SDS011;23188;51.188;16.374;2023-04-12T23:13:49;10.00;;;5.90;;
37303;SDS011;23188;51.188;16.374;2023-04-12T23:17:52;10.00;;;7.20;;
37303;SDS011;23188;51.188;16.374;2023-04-12T23:21:56;15.60;;;7.80;;
37303;SDS011;23188;51.188;16.374;2023-04-12T23:25:59;15.60;;;7.70;;
37303;SDS011;23188;51.188;16.374;2023-04-12T23:30:02;8.60;;;7.10;;
37303;SDS011;23188;51.188;16.374;2023-04-12T23:34:07;8.20;;;6.30;;
37303;SDS011;23188;51.188;16.374;2023-04-12T23:38:10;8.50;;;6.40;;
37303;SDS011;23188;51.188;16.374;2023-04-12T23:42:17;10.30;;;7.60;;
37303;SDS011;23188;51.188;16.374;2023-04-12T23:46:20;10.10;;;6.70;;
37303;SDS011;23188;51.188;16.374;2023-04-12T23:50:23;7.50;;;6.10;;
37303;SDS011;23188;51.188;16.374;2023-04-12T23:54:26;8.90;;;6.20;;
37303;SDS011;23188;51.188;16.374;2023-04-12T23:58:29;9.80;;;7.90;;
